createdAt,value
2017-10-27T00:00:51.626Z,28.43
2017-10-27T00:03:20.660Z,29.33
2017-10-27T00:05:49.556Z,30.00
2017-10-27T00:08:17.726Z,27.30
2017-10-27T00:10:48.856Z,25.67
2017-10-27T00:13:17.837Z,23.70
2017-10-27T00:15:45.957Z,25.63
2017-10-27T00:18:14.760Z,27.67
2017-10-27T00:20:43.485Z,25.83
2017-10-27T00:23:11.563Z,26.33
2017-10-27T00:25:41.429Z,25.83
2017-10-27T00:28:11.107Z,27.50
2017-10-27T00:30:40.530Z,27.73
2017-10-27T00:33:08.661Z,25.73
2017-10-27T00:35:38.044Z,27.37
2017-10-27T00:38:07.005Z,28.00
2017-10-27T00:40:36.983Z,31.07
2017-10-27T00:43:06.060Z,31.10
2017-10-27T00:45:35.037Z,30.80
2017-10-27T00:48:03.913Z,30.07
2017-10-27T00:50:32.062Z,32.33
2017-10-27T00:53:00.271Z,32.97
2017-10-27T00:55:28.494Z,33.40
2017-10-27T00:57:56.790Z,33.40
2017-10-27T01:00:26.022Z,34.33
2017-10-27T01:02:54.875Z,26.90
2017-10-27T01:05:22.984Z,27.13
2017-10-27T01:07:51.879Z,26.83
2017-10-27T01:10:23.620Z,24.67
2017-10-27T01:12:53.259Z,27.23
2017-10-27T01:15:22.190Z,27.33
2017-10-27T01:17:51.291Z,29.37
2017-10-27T01:20:19.403Z,28.00
2017-10-27T01:22:49.413Z,31.90
2017-10-27T01:25:19.232Z,31.60
2017-10-27T01:27:48.713Z,27.90
2017-10-27T01:30:18.143Z,28.37
2017-10-27T01:32:46.328Z,30.73
2017-10-27T01:35:14.437Z,31.70
2017-10-27T01:37:43.455Z,31.57
2017-10-27T01:40:12.317Z,34.90
2017-10-27T01:42:40.482Z,34.30
2017-10-27T01:45:08.842Z,37.90
2017-10-27T01:47:37.018Z,36.20
2017-10-27T01:50:06.735Z,34.60
2017-10-27T01:52:34.911Z,33.67
2017-10-27T01:55:03.841Z,35.60
2017-10-27T01:57:33.708Z,36.60
2017-10-27T02:00:03.232Z,36.70
2017-10-27T02:02:32.028Z,32.93
2017-10-27T02:05:01.221Z,35.83
2017-10-27T02:07:29.351Z,34.77
2017-10-27T02:09:58.620Z,35.27
2017-10-27T02:12:26.689Z,33.63
2017-10-27T02:14:54.847Z,37.63
2017-10-27T02:17:23.736Z,40.13
2017-10-27T02:19:52.595Z,33.40
2017-10-27T02:22:20.721Z,42.53
2017-10-27T02:24:48.874Z,46.83
2017-10-27T02:27:18.762Z,44.03
2017-10-27T02:29:47.694Z,38.40
2017-10-27T02:32:16.425Z,32.87
2017-10-27T02:34:45.347Z,34.00
2017-10-27T02:37:14.253Z,33.40
2017-10-27T02:39:43.157Z,31.30
2017-10-27T02:42:11.286Z,33.67
2017-10-27T02:44:39.418Z,32.27
2017-10-27T02:47:07.582Z,33.80
2017-10-27T02:49:35.781Z,35.50
2017-10-27T02:52:06.897Z,34.00
2017-10-27T02:54:36.784Z,37.40
2017-10-27T02:57:05.647Z,34.83
2017-10-27T02:59:34.612Z,33.20
2017-10-27T03:02:05.108Z,34.73
2017-10-27T03:04:33.282Z,34.73
2017-10-27T03:07:01.473Z,36.00
2017-10-27T03:09:29.580Z,33.30
2017-10-27T03:11:58.447Z,36.43
2017-10-27T03:14:29.204Z,33.83
2017-10-27T03:16:58.727Z,34.20
2017-10-27T03:19:28.282Z,35.30
2017-10-27T03:21:56.439Z,34.13
2017-10-27T03:24:24.515Z,34.93
2017-10-27T03:26:52.912Z,35.03
2017-10-27T03:29:21.046Z,35.20
2017-10-27T03:31:52.839Z,35.43
2017-10-27T03:34:21.888Z,36.67
2017-10-27T03:36:50.673Z,33.53
2017-10-27T03:39:18.909Z,33.77
2017-10-27T03:41:47.846Z,34.23
2017-10-27T03:44:15.963Z,34.10
2017-10-27T03:46:44.948Z,31.60
2017-10-27T03:49:13.079Z,35.60
2017-10-27T03:51:41.407Z,35.77
2017-10-27T03:54:09.547Z,32.83
2017-10-27T03:56:37.673Z,31.00
2017-10-27T03:59:07.095Z,32.80
2017-10-27T04:01:35.213Z,32.67
2017-10-27T04:04:03.350Z,32.77
2017-10-27T04:06:32.905Z,34.47
2017-10-27T04:09:04.059Z,37.30
2017-10-27T04:11:33.138Z,36.00
2017-10-27T04:14:02.144Z,32.90
2017-10-27T04:16:30.428Z,31.37
2017-10-27T04:18:59.534Z,34.00
2017-10-27T04:21:28.462Z,33.50
2017-10-27T04:23:59.222Z,33.60
2017-10-27T04:26:28.295Z,32.17
2017-10-27T04:28:56.483Z,32.53
2017-10-27T04:31:24.627Z,34.40
2017-10-27T04:33:52.746Z,33.67
2017-10-27T04:36:21.662Z,32.17
2017-10-27T04:38:53.767Z,34.53
2017-10-27T04:41:24.582Z,31.70
2017-10-27T04:43:55.523Z,30.53
2017-10-27T04:46:23.623Z,32.30
2017-10-27T04:48:52.483Z,29.67
2017-10-27T04:51:20.592Z,30.10
2017-10-27T04:53:50.020Z,33.60
2017-10-27T04:56:18.165Z,30.93
2017-10-27T04:58:47.123Z,30.43
2017-10-27T05:01:15.256Z,33.30
2017-10-27T05:03:46.323Z,30.87
2017-10-27T05:06:14.579Z,31.13
2017-10-27T05:08:42.693Z,27.83
2017-10-27T05:11:13.356Z,28.30
2017-10-27T05:13:41.451Z,28.23
2017-10-27T05:16:10.500Z,27.33
2017-10-27T05:18:44.329Z,26.43
2017-10-27T05:21:18.031Z,26.13
2017-10-27T05:23:52.578Z,33.23
2017-10-27T05:26:21.534Z,33.90
2017-10-27T05:28:51.609Z,27.67
2017-10-27T05:31:19.724Z,23.57
2017-10-27T05:33:48.653Z,25.80
2017-10-27T05:36:16.797Z,26.07
2017-10-27T05:38:45.091Z,22.10
2017-10-27T05:41:13.905Z,23.93
2017-10-27T05:43:42.968Z,24.50
2017-10-27T05:46:11.680Z,28.80
2017-10-27T05:48:39.788Z,24.00
2017-10-27T05:51:08.677Z,27.87
2017-10-27T05:53:37.797Z,25.27
2017-10-27T05:56:07.605Z,19.43
2017-10-27T05:58:36.609Z,18.37
2017-10-27T06:01:06.209Z,18.20
2017-10-27T06:03:36.210Z,15.30
2017-10-27T06:06:05.480Z,16.53
2017-10-27T06:08:33.577Z,15.60
2017-10-27T06:11:01.882Z,10.40
2017-10-27T06:13:29.992Z,14.80
2017-10-27T06:15:58.629Z,12.10
2017-10-27T06:18:27.525Z,11.00
2017-10-27T06:20:56.371Z,13.23
2017-10-27T06:23:25.118Z,10.20
2017-10-27T06:26:02.775Z,12.17
2017-10-27T06:28:30.925Z,9.30
2017-10-27T06:31:01.305Z,11.03
2017-10-27T06:33:29.448Z,11.57
2017-10-27T06:35:57.567Z,9.20
2017-10-27T06:38:28.307Z,9.10
2017-10-27T06:40:56.472Z,9.73
2017-10-27T06:43:28.077Z,9.43
2017-10-27T06:46:01.505Z,8.40
2017-10-27T06:48:30.745Z,11.43
2017-10-27T06:50:59.978Z,12.07
2017-10-27T06:53:28.146Z,7.40
2017-10-27T06:55:56.212Z,11.33
2017-10-27T06:58:24.341Z,9.43
2017-10-27T07:00:52.643Z,10.93
2017-10-27T07:03:20.805Z,9.80
2017-10-27T07:05:50.476Z,11.50
2017-10-27T07:08:18.633Z,9.13
2017-10-27T07:10:47.255Z,10.07
2017-10-27T07:13:15.425Z,11.53
2017-10-27T07:15:43.532Z,11.00
2017-10-27T07:18:12.516Z,8.20
2017-10-27T07:20:40.649Z,10.90
2017-10-27T07:23:09.563Z,6.87
2017-10-27T07:25:39.189Z,9.30
2017-10-27T07:28:08.067Z,8.50
2017-10-27T07:30:36.253Z,10.13
2017-10-27T07:33:05.122Z,11.20
2017-10-27T07:35:34.034Z,13.10
2017-10-27T07:38:02.194Z,9.60
2017-10-27T07:40:30.327Z,10.43
2017-10-27T07:42:58.446Z,15.30
2017-10-27T07:45:26.548Z,10.93
2017-10-27T07:47:54.724Z,7.03
2017-10-27T07:50:22.886Z,6.07
2017-10-27T07:52:51.103Z,4.70
2017-10-27T07:55:20.021Z,3.67
2017-10-27T07:57:51.020Z,4.83
2017-10-27T08:00:19.720Z,3.13
2017-10-27T08:02:48.567Z,2.47
2017-10-27T08:05:17.597Z,2.60
2017-10-27T08:07:45.667Z,2.80
2017-10-27T08:10:15.100Z,2.03
2017-10-27T08:12:44.924Z,2.60
2017-10-27T08:15:13.120Z,2.30
2017-10-27T08:17:42.408Z,2.60
2017-10-27T08:20:10.710Z,3.27
2017-10-27T08:22:38.985Z,3.97
2017-10-27T08:25:08.252Z,5.83
2017-10-27T08:27:36.400Z,6.30
2017-10-27T08:30:05.343Z,5.73
2017-10-27T08:32:33.487Z,8.10
2017-10-27T08:35:01.643Z,8.17
2017-10-27T08:37:31.285Z,6.23
2017-10-27T08:40:00.226Z,5.87
2017-10-27T08:42:29.137Z,5.27
2017-10-27T08:44:57.705Z,7.67
2017-10-27T08:47:26.221Z,6.67
2017-10-27T08:49:56.057Z,6.60
2017-10-27T08:52:26.985Z,5.67
2017-10-27T08:54:55.700Z,5.67
2017-10-27T08:57:24.785Z,3.87
2017-10-27T08:59:52.904Z,4.00
2017-10-27T09:02:21.028Z,5.00
2017-10-27T09:04:49.951Z,4.77
2017-10-27T09:07:20.805Z,5.30
2017-10-27T09:09:49.842Z,7.23
2017-10-27T09:12:21.468Z,8.40
2017-10-27T09:14:50.191Z,8.23
2017-10-27T09:17:23.921Z,6.30
2017-10-27T09:19:52.031Z,8.17
2017-10-27T09:22:20.354Z,7.90
2017-10-27T09:24:52.424Z,8.10
2017-10-27T09:27:20.586Z,6.67
2017-10-27T09:29:48.692Z,7.10
2017-10-27T09:32:17.230Z,7.57
2017-10-27T09:34:47.624Z,5.17
2017-10-27T09:37:16.486Z,6.10
2017-10-27T09:42:20.883Z,7.60
2017-10-27T09:44:52.093Z,6.10
2017-10-27T09:47:21.283Z,8.00
2017-10-27T09:49:50.460Z,5.50
2017-10-27T09:52:18.690Z,5.30
2017-10-27T09:54:47.769Z,5.50
2017-10-27T09:57:16.624Z,5.47
2017-10-27T09:59:46.796Z,5.07
2017-10-27T10:02:15.805Z,5.70
2017-10-27T10:04:43.918Z,6.77
2017-10-27T10:07:12.068Z,7.23
2017-10-27T10:09:40.229Z,7.07
2017-10-27T10:12:10.235Z,5.60
2017-10-27T10:14:38.340Z,4.10
2017-10-27T10:17:09.217Z,3.83
2017-10-27T10:19:39.066Z,3.90
2017-10-27T10:22:07.285Z,3.60
2017-10-27T10:24:36.345Z,3.97
2017-10-27T10:27:07.651Z,4.27
2017-10-27T10:29:35.839Z,4.00
2017-10-27T10:32:05.383Z,3.23
2017-10-27T10:34:33.919Z,2.60
2017-10-27T10:37:02.778Z,3.63
2017-10-27T10:39:31.584Z,13.33
2017-10-27T10:42:01.449Z,4.30
2017-10-27T10:44:29.531Z,9.80
2017-10-27T10:46:59.447Z,6.30
2017-10-27T10:49:28.520Z,6.90
2017-10-27T10:51:57.158Z,3.37
2017-10-27T10:54:25.265Z,2.97
2017-10-27T10:59:28.555Z,3.20
2017-10-27T11:01:56.702Z,2.93
2017-10-27T11:04:25.616Z,3.43
2017-10-27T11:06:53.795Z,3.47
2017-10-27T11:09:22.620Z,2.40
2017-10-27T11:11:51.921Z,2.20
2017-10-27T11:14:23.787Z,2.90
2017-10-27T11:16:53.382Z,2.50
2017-10-27T11:19:22.044Z,2.20
2017-10-27T11:21:50.202Z,2.30
2017-10-27T11:24:18.309Z,2.70
2017-10-27T11:26:47.991Z,2.70
2017-10-27T11:29:18.842Z,2.17
2017-10-27T11:31:46.925Z,2.50
2017-10-27T11:34:16.804Z,2.47
2017-10-27T11:36:44.903Z,1.70
2017-10-27T11:39:13.772Z,2.17
2017-10-27T11:41:47.252Z,1.93
2017-10-27T11:44:17.970Z,1.67
2017-10-27T11:46:49.066Z,1.53
2017-10-27T11:49:17.210Z,1.90
2017-10-27T11:51:46.014Z,1.87
2017-10-27T11:54:17.156Z,1.80
2017-10-27T11:56:46.157Z,1.50
2017-10-27T11:59:14.268Z,1.80
2017-10-27T12:01:43.088Z,1.60
2017-10-27T12:04:11.713Z,1.53
2017-10-27T12:06:39.871Z,2.00
2017-10-27T12:09:08.728Z,1.63
2017-10-27T12:11:36.852Z,1.80
2017-10-27T12:14:05.508Z,1.97
2017-10-27T12:16:33.744Z,1.53
2017-10-27T12:19:02.503Z,1.50
2017-10-27T12:21:30.732Z,1.50
2017-10-27T12:23:59.793Z,1.40
2017-10-27T12:26:28.847Z,1.83
2017-10-27T12:28:56.943Z,1.57
2017-10-27T12:31:25.076Z,1.50
2017-10-27T12:33:53.236Z,1.77
2017-10-27T12:36:21.414Z,1.40
2017-10-27T12:38:50.198Z,1.93
2017-10-27T12:41:33.002Z,2.07
2017-10-27T12:44:02.933Z,1.57
2017-10-27T12:46:31.026Z,2.73
2017-10-27T12:49:02.084Z,1.87
2017-10-27T12:51:30.181Z,2.07
2017-10-27T12:53:58.840Z,2.00
2017-10-27T12:56:26.961Z,1.23
2017-10-27T12:58:55.090Z,1.60
2017-10-27T13:01:23.327Z,1.43
2017-10-27T13:03:51.440Z,4.57
2017-10-27T13:06:19.709Z,4.03
2017-10-27T13:08:49.556Z,2.20
2017-10-27T13:13:53.406Z,2.10
2017-10-27T13:16:26.109Z,2.03
2017-10-27T13:18:56.500Z,3.80
2017-10-27T13:21:24.725Z,2.07
2017-10-27T13:23:53.452Z,1.80
2017-10-27T13:26:24.116Z,1.73
2017-10-27T13:28:53.021Z,1.90
2017-10-27T13:31:22.019Z,1.40
2017-10-27T13:33:52.055Z,1.47
2017-10-27T13:36:21.983Z,2.43
2017-10-27T13:38:50.172Z,1.50
2017-10-27T13:41:19.452Z,2.20
2017-10-27T13:43:49.413Z,1.67
2017-10-27T13:46:17.602Z,1.30
2017-10-27T13:48:46.570Z,1.60
2017-10-27T13:51:16.913Z,1.60
2017-10-27T13:53:45.081Z,1.40
2017-10-27T13:56:13.623Z,1.60
2017-10-27T13:58:41.722Z,1.57
2017-10-27T14:01:11.330Z,2.43
2017-10-27T14:03:40.963Z,2.23
2017-10-27T14:06:09.125Z,1.87
2017-10-27T14:08:37.293Z,1.80
2017-10-27T14:11:06.189Z,1.80
2017-10-27T14:13:43.815Z,1.83
2017-10-27T14:16:13.180Z,1.60
2017-10-27T14:18:42.756Z,1.60
2017-10-27T14:21:11.916Z,1.90
2017-10-27T14:23:40.017Z,1.30
2017-10-27T14:26:08.145Z,1.80
2017-10-27T14:28:36.242Z,1.90
2017-10-27T14:31:05.160Z,1.87
2017-10-27T14:33:34.030Z,2.10
2017-10-27T14:36:02.125Z,1.67
2017-10-27T14:38:30.984Z,2.97
2017-10-27T14:40:59.092Z,2.47
2017-10-27T14:43:27.243Z,2.30
2017-10-27T14:45:56.945Z,2.17
2017-10-27T14:48:25.029Z,1.80
2017-10-27T14:50:53.884Z,2.00
2017-10-27T14:53:22.016Z,2.03
2017-10-27T14:55:50.111Z,1.90
2017-10-27T14:58:18.252Z,2.57
2017-10-27T15:00:46.525Z,1.90
2017-10-27T15:03:16.288Z,1.80
2017-10-27T15:05:44.406Z,2.03
2017-10-27T15:08:12.479Z,2.00
2017-10-27T15:10:40.578Z,3.00
2017-10-27T15:13:08.670Z,2.07
2017-10-27T15:15:36.779Z,2.67
2017-10-27T15:18:09.533Z,2.00
2017-10-27T15:20:37.610Z,3.73
2017-10-27T15:23:06.495Z,8.80
2017-10-27T15:25:35.273Z,8.00
2017-10-27T15:28:03.360Z,4.33
2017-10-27T15:30:32.944Z,1.80
2017-10-27T15:33:01.049Z,1.90
2017-10-27T15:35:29.118Z,1.53
2017-10-27T15:37:58.794Z,2.33
2017-10-27T15:40:26.965Z,1.97
2017-10-27T15:42:55.100Z,1.63
2017-10-27T15:45:26.128Z,2.47
2017-10-27T15:47:54.848Z,2.00
2017-10-27T15:50:23.094Z,2.50
2017-10-27T15:52:53.377Z,1.80
2017-10-27T15:55:22.087Z,2.10
2017-10-27T15:57:52.017Z,1.53
2017-10-27T16:00:21.088Z,2.90
2017-10-27T16:02:50.019Z,2.33
2017-10-27T16:05:18.929Z,3.93
2017-10-27T16:07:49.009Z,2.37
2017-10-27T16:10:21.240Z,1.90
2017-10-27T16:12:49.445Z,2.30
2017-10-27T16:15:18.404Z,5.33
2017-10-27T16:17:47.282Z,2.53
2017-10-27T16:20:18.842Z,2.53
2017-10-27T16:22:49.365Z,2.67
2017-10-27T16:25:17.552Z,2.93
2017-10-27T16:27:46.316Z,3.10
2017-10-27T16:30:15.144Z,2.10
2017-10-27T16:32:45.361Z,2.20
2017-10-27T16:35:17.012Z,2.37
2017-10-27T16:37:45.912Z,1.90
2017-10-27T16:40:14.003Z,3.00
2017-10-27T16:42:42.921Z,2.30
2017-10-27T16:45:11.780Z,1.93
2017-10-27T16:47:39.923Z,2.10
2017-10-27T16:50:08.081Z,2.07
2017-10-27T16:52:38.651Z,2.30
2017-10-27T16:55:06.825Z,1.90
2017-10-27T16:57:35.520Z,2.07
2017-10-27T17:00:03.682Z,1.87
2017-10-27T17:02:32.511Z,3.50
2017-10-27T17:05:01.224Z,2.33
2017-10-27T17:07:31.408Z,2.20
2017-10-27T17:09:59.597Z,1.83
2017-10-27T17:12:27.820Z,2.00
2017-10-27T17:14:55.911Z,2.00
2017-10-27T17:17:26.344Z,1.90
2017-10-27T17:19:55.719Z,2.50
2017-10-27T17:22:26.845Z,2.30
2017-10-27T17:24:55.012Z,1.93
2017-10-27T17:27:23.697Z,2.00
2017-10-27T17:29:51.853Z,2.30
2017-10-27T17:32:19.952Z,1.73
2017-10-27T17:34:48.079Z,1.97
2017-10-27T17:37:18.059Z,2.00
2017-10-27T17:39:48.375Z,2.40
2017-10-27T17:42:16.440Z,1.90
2017-10-27T17:44:44.577Z,1.80
2017-10-27T17:47:14.411Z,1.93
2017-10-27T17:49:44.353Z,1.73
2017-10-27T17:52:13.644Z,2.20
2017-10-27T17:54:42.338Z,1.90
2017-10-27T17:57:11.436Z,1.83
2017-10-27T17:59:40.784Z,2.60
2017-10-27T18:02:09.631Z,2.80
2017-10-27T18:04:39.948Z,1.67
2017-10-27T18:07:09.232Z,2.97
2017-10-27T18:09:37.505Z,2.20
2017-10-27T18:12:06.805Z,2.57
2017-10-27T18:14:35.883Z,2.13
2017-10-27T18:17:08.890Z,2.73
2017-10-27T18:19:38.960Z,3.13
2017-10-27T18:22:08.818Z,3.40
2017-10-27T18:24:37.749Z,2.30
2017-10-27T18:27:05.992Z,2.33
2017-10-27T18:29:35.160Z,2.40
2017-10-27T18:32:04.051Z,2.40
2017-10-27T18:34:33.467Z,2.00
2017-10-27T18:37:01.745Z,2.70
2017-10-27T18:39:31.417Z,3.03
2017-10-27T18:41:59.798Z,2.27
2017-10-27T18:44:29.439Z,2.70
2017-10-27T18:46:59.415Z,2.80
2017-10-27T18:49:27.617Z,2.37
2017-10-27T18:51:55.886Z,2.77
2017-10-27T18:54:24.748Z,3.60
2017-10-27T18:56:53.723Z,3.00
2017-10-27T18:59:25.700Z,2.60
2017-10-27T19:01:54.133Z,3.13
2017-10-27T19:04:22.263Z,2.77
2017-10-27T19:06:51.423Z,2.70
2017-10-27T19:09:21.280Z,2.87
2017-10-27T19:11:50.490Z,3.10
2017-10-27T19:14:18.731Z,2.40
2017-10-27T19:16:47.116Z,2.50
2017-10-27T19:19:17.918Z,3.50
2017-10-27T19:21:46.212Z,3.13
2017-10-27T19:24:14.359Z,2.60
2017-10-27T19:26:43.475Z,2.60
2017-10-27T19:29:12.320Z,2.90
2017-10-27T19:31:41.664Z,3.30
2017-10-27T19:34:09.888Z,3.37
2017-10-27T19:36:38.152Z,3.20
2017-10-27T19:39:08.245Z,3.70
2017-10-27T19:41:38.088Z,3.13
2017-10-27T19:44:07.426Z,3.30
2017-10-27T19:46:37.653Z,3.53
2017-10-27T19:49:07.600Z,4.07
2017-10-27T19:51:37.550Z,3.60
2017-10-27T19:54:05.788Z,3.93
2017-10-27T19:56:35.964Z,3.50
2017-10-27T19:59:04.871Z,3.60
2017-10-27T20:01:34.466Z,3.53
2017-10-27T20:04:02.724Z,3.87
2017-10-27T20:06:30.896Z,4.93
2017-10-27T20:08:58.994Z,4.57
2017-10-27T20:14:02.486Z,5.20
2017-10-27T20:16:32.305Z,5.13
2017-10-27T20:19:01.357Z,5.97
2017-10-27T20:21:29.494Z,5.83
2017-10-27T20:23:58.290Z,6.20
2017-10-27T20:26:28.101Z,6.50
2017-10-27T20:28:57.206Z,6.73
2017-10-27T20:31:25.352Z,5.50
2017-10-27T20:33:53.766Z,5.70
2017-10-27T20:36:23.014Z,8.13
2017-10-27T20:38:55.220Z,8.60
2017-10-27T20:41:23.315Z,6.03
2017-10-27T20:43:55.268Z,6.80
2017-10-27T20:46:24.988Z,6.90
2017-10-27T20:48:53.270Z,7.67
2017-10-27T20:51:22.996Z,7.43
2017-10-27T20:53:51.142Z,8.33
2017-10-27T20:56:20.109Z,7.40
2017-10-27T20:58:48.224Z,6.57
2017-10-27T21:01:18.322Z,6.47
2017-10-27T21:03:46.500Z,6.30
2017-10-27T21:06:15.957Z,8.97
2017-10-27T21:08:44.097Z,7.00
2017-10-27T21:11:13.206Z,9.30
2017-10-27T21:13:42.065Z,15.23
2017-10-27T21:16:10.287Z,7.23
2017-10-27T21:18:41.482Z,6.80
2017-10-27T21:21:10.606Z,14.33
2017-10-27T21:23:40.049Z,9.37
2017-10-27T21:26:08.978Z,7.03
2017-10-27T21:28:39.804Z,6.50
2017-10-27T21:31:10.725Z,6.43
2017-10-27T21:33:38.896Z,7.63
2017-10-27T21:36:07.789Z,5.90
2017-10-27T21:38:36.044Z,5.80
2017-10-27T21:41:05.282Z,5.97
2017-10-27T21:43:34.232Z,6.60
2017-10-27T21:46:04.392Z,6.17
2017-10-27T21:48:33.259Z,6.10
2017-10-27T21:51:02.113Z,7.27
2017-10-27T21:53:30.741Z,6.27
2017-10-27T21:55:59.667Z,7.83
2017-10-27T21:58:28.615Z,7.20
2017-10-27T22:00:56.765Z,6.23
2017-10-27T22:03:24.972Z,6.40
2017-10-27T22:05:56.119Z,6.10
2017-10-27T22:08:24.273Z,6.23
2017-10-27T22:10:52.427Z,7.30
2017-10-27T22:13:20.568Z,7.23
2017-10-27T22:15:49.729Z,6.50
2017-10-27T22:18:17.946Z,7.63
2017-10-27T22:20:49.385Z,7.67
2017-10-27T22:23:17.493Z,7.33
2017-10-27T22:25:45.646Z,6.87
2017-10-27T22:28:13.777Z,7.57
2017-10-27T22:30:43.612Z,8.20
2017-10-27T22:33:12.604Z,8.47
2017-10-27T22:35:40.754Z,8.23
2017-10-27T22:38:08.858Z,8.60
2017-10-27T22:40:37.841Z,7.20
2017-10-27T22:43:05.957Z,8.37
2017-10-27T22:45:40.438Z,10.07
2017-10-27T22:48:09.126Z,8.63
2017-10-27T22:50:37.848Z,10.00
2017-10-27T22:53:07.637Z,8.07
2017-10-27T22:55:35.747Z,8.50
2017-10-27T22:58:04.601Z,8.17
2017-10-27T23:00:33.652Z,9.00
2017-10-27T23:03:01.806Z,8.60
2017-10-27T23:05:29.946Z,8.17
2017-10-27T23:08:04.449Z,8.47
2017-10-27T23:10:32.577Z,9.70
2017-10-27T23:13:00.757Z,8.20
2017-10-27T23:15:32.173Z,9.10
2017-10-27T23:18:01.268Z,9.30
2017-10-27T23:20:31.084Z,8.40
2017-10-27T23:23:02.926Z,8.97
2017-10-27T23:25:31.429Z,9.33
2017-10-27T23:27:59.576Z,10.00
2017-10-27T23:30:27.717Z,9.07
2017-10-27T23:32:55.846Z,9.20
2017-10-27T23:35:25.480Z,8.87
2017-10-27T23:37:54.457Z,9.50
2017-10-27T23:40:24.740Z,9.50
2017-10-27T23:42:54.047Z,11.80
2017-10-27T23:45:22.958Z,10.80
2017-10-27T23:47:51.119Z,9.73
2017-10-27T23:50:21.315Z,10.23
2017-10-27T23:52:50.382Z,10.10
2017-10-27T23:55:18.510Z,9.90
2017-10-27T23:57:49.469Z,10.00
